Time;durP1;ratioP1;P1;durP2;ratioP2;P2;SDS_P1;SDS_P2;PMS_P1;PMS_P2;Temp;Humidity;BMP_temperature;BMP_pressure;BME280_temperature;BME280_humidity;BME280_pressure;Samples;Min_cycle;Max_cycle;Signal;HPM_P1;HPM_P2
2024/01/03 00:00:43;;;;;;;3.33;1.00;;;;;;;;;;8256643;28;20041;-58
2024/01/03 00:04:43;;;;;;;1.98;0.90;;;;;;;;;;8258738;28;20033;-59
2024/01/03 00:08:43;;;;;;;1.33;0.77;;;;;;;;;;8258278;28;20955;-58
2024/01/03 00:12:44;;;;;;;2.17;1.00;;;;;;;;;;8261866;28;20033;-58
2024/01/03 00:16:44;;;;;;;3.70;0.80;;;;;;;;;;8264075;28;20049;-57
2024/01/03 00:20:44;;;;;;;1.67;0.87;;;;;;;;;;8262102;28;20036;-58
2024/01/03 00:24:46;;;;;;;2.10;0.85;;;;;;;;;;8258260;28;20278;-59
2024/01/03 00:28:47;;;;;;;1.20;0.82;;;;;;;;;;8258698;28;20025;-59
2024/01/03 00:32:47;;;;;;;1.08;0.93;;;;;;;;;;8258070;28;20498;-60
2024/01/03 00:36:51;;;;;;;3.17;0.80;;;;;;;;;;8257686;28;20779;-59
2024/01/03 00:40:55;;;;;;;2.15;1.00;;;;;;;;;;8258215;28;20037;-58
2024/01/03 00:44:55;;;;;;;1.65;0.70;;;;;;;;;;8255499;28;20060;-57
2024/01/03 00:48:55;;;;;;;1.85;0.70;;;;;;;;;;8260158;28;20069;-57
2024/01/03 00:52:55;;;;;;;0.43;0.43;;;;;;;;;;8258272;28;20044;-56
2024/01/03 00:56:58;;;;;;;0.57;0.50;;;;;;;;;;8258548;28;20336;-56
2024/01/03 01:00:58;;;;;;;2.35;0.50;;;;;;;;;;8254979;28;20049;-57
2024/01/03 01:04:58;;;;;;;0.67;0.43;;;;;;;;;;8257891;28;20490;-56
2024/01/03 01:09:01;;;;;;;2.20;0.73;;;;;;;;;;8258148;28;20037;-57
2024/01/03 01:13:01;;;;;;;1.90;1.00;;;;;;;;;;8256245;28;20349;-57
2024/01/03 01:17:01;;;;;;;2.05;0.70;;;;;;;;;;8253762;28;20466;-57
2024/01/03 01:21:02;;;;;;;1.63;0.70;;;;;;;;;;8257205;28;20029;-57
2024/01/03 01:25:02;;;;;;;2.80;0.93;;;;;;;;;;8263401;28;20063;-58
2024/01/03 01:29:02;;;;;;;5.80;1.27;;;;;;;;;;8264161;28;20280;-58
2024/01/03 01:33:03;;;;;;;2.38;0.90;;;;;;;;;;8259920;28;20039;-58
2024/01/03 01:37:03;;;;;;;6.07;1.20;;;;;;;;;;8256988;28;20037;-59
2024/01/03 01:41:03;;;;;;;3.88;1.38;;;;;;;;;;8255096;28;20342;-58
2024/01/03 01:45:03;;;;;;;4.57;1.15;;;;;;;;;;8256182;28;20499;-59
2024/01/03 01:49:04;;;;;;;7.05;1.40;;;;;;;;;;8249400;28;20032;-58
2024/01/03 01:53:05;;;;;;;8.23;1.50;;;;;;;;;;8253549;28;20035;-58
2024/01/03 01:57:06;;;;;;;5.90;1.42;;;;;;;;;;8260921;28;20021;-58
2024/01/03 02:01:06;;;;;;;7.03;1.25;;;;;;;;;;8257447;28;20135;-56
2024/01/03 02:05:07;;;;;;;8.18;1.60;;;;;;;;;;8264138;28;22616;-57
2024/01/03 02:09:07;;;;;;;4.75;1.38;;;;;;;;;;8261663;28;20026;-57
2024/01/03 02:13:07;;;;;;;5.75;1.33;;;;;;;;;;8263540;28;22772;-57
2024/01/03 02:17:08;;;;;;;3.53;1.08;;;;;;;;;;8263730;28;20037;-58
2024/01/03 02:21:12;;;;;;;3.13;1.00;;;;;;;;;;8266013;28;20030;-58
2024/01/03 02:25:12;;;;;;;2.60;1.10;;;;;;;;;;8265568;28;21049;-57
2024/01/03 02:29:12;;;;;;;1.70;0.60;;;;;;;;;;8265397;28;20021;-58
2024/01/03 02:33:12;;;;;;;1.85;0.70;;;;;;;;;;8258615;28;20376;-56
2024/01/03 02:37:13;;;;;;;0.55;0.50;;;;;;;;;;8256391;28;20064;-58
2024/01/03 02:41:13;;;;;;;1.75;0.70;;;;;;;;;;8255731;28;20477;-58
2024/01/03 02:45:14;;;;;;;1.50;0.70;;;;;;;;;;8258577;28;20140;-59
2024/01/03 02:49:14;;;;;;;1.95;0.75;;;;;;;;;;8255759;28;20013;-58
2024/01/03 02:53:15;;;;;;;3.75;1.00;;;;;;;;;;8257312;28;20026;-58
2024/01/03 02:57:15;;;;;;;2.80;0.90;;;;;;;;;;8261268;28;20112;-58
2024/01/03 03:01:16;;;;;;;3.85;1.40;;;;;;;;;;8258073;28;20045;-58
2024/01/03 03:05:16;;;;;;;7.40;1.40;;;;;;;;;;8260586;28;20025;-58
2024/01/03 03:09:16;;;;;;;5.65;1.75;;;;;;;;;;8261579;28;20049;-58
2024/01/03 03:13:17;;;;;;;4.95;1.30;;;;;;;;;;8263281;28;20092;-58
2024/01/03 03:17:17;;;;;;;5.38;1.30;;;;;;;;;;8261448;28;20095;-58
2024/01/03 03:21:17;;;;;;;7.30;1.80;;;;;;;;;;8256880;28;20126;-57
2024/01/03 03:25:17;;;;;;;9.15;1.50;;;;;;;;;;8262445;28;20075;-58
2024/01/03 03:29:17;;;;;;;5.15;1.45;;;;;;;;;;8261790;28;20030;-58
2024/01/03 03:33:18;;;;;;;5.22;1.20;;;;;;;;;;8256106;28;20053;-58
2024/01/03 03:37:19;;;;;;;5.55;1.48;;;;;;;;;;8261659;28;20257;-57
2024/01/03 03:41:19;;;;;;;6.67;1.60;;;;;;;;;;8260242;28;20017;-59
2024/01/03 03:45:20;;;;;;;8.32;1.92;;;;;;;;;;8262129;28;20948;-57
2024/01/03 03:49:20;;;;;;;6.57;1.70;;;;;;;;;;8261835;28;20132;-58
2024/01/03 03:53:20;;;;;;;8.00;1.52;;;;;;;;;;8260764;28;20481;-58
2024/01/03 03:57:20;;;;;;;10.15;1.48;;;;;;;;;;8262581;28;20315;-58
2024/01/03 04:01:21;;;;;;;5.88;1.50;;;;;;;;;;8257004;28;20236;-58
2024/01/03 04:05:21;;;;;;;11.30;2.13;;;;;;;;;;8261870;28;20060;-58
2024/01/03 04:09:21;;;;;;;6.07;1.70;;;;;;;;;;8259542;28;20025;-59
2024/01/03 04:13:21;;;;;;;6.97;1.15;;;;;;;;;;8262281;28;20032;-58
2024/01/03 04:17:22;;;;;;;5.32;1.30;;;;;;;;;;8259447;28;20044;-58
2024/01/03 04:21:22;;;;;;;8.50;1.53;;;;;;;;;;8260141;28;20048;-58
2024/01/03 04:25:22;;;;;;;8.77;1.77;;;;;;;;;;8263673;28;20876;-57
2024/01/03 04:29:22;;;;;;;5.95;1.30;;;;;;;;;;8257064;28;20020;-56
2024/01/03 04:33:23;;;;;;;6.60;1.40;;;;;;;;;;8256399;28;20064;-56
2024/01/03 04:37:23;;;;;;;8.07;1.80;;;;;;;;;;8260362;28;20014;-58
2024/01/03 04:41:23;;;;;;;10.43;2.15;;;;;;;;;;8257632;28;20017;-57
2024/01/03 04:45:23;;;;;;;14.93;3.23;;;;;;;;;;8259741;28;20033;-58
2024/01/03 04:49:24;;;;;;;10.38;2.22;;;;;;;;;;8256728;28;20665;-58
2024/01/03 04:53:24;;;;;;;7.37;1.83;;;;;;;;;;8259899;28;20041;-58
2024/01/03 04:57:24;;;;;;;7.95;2.30;;;;;;;;;;8260778;28;20276;-58
2024/01/03 05:01:24;;;;;;;11.55;2.05;;;;;;;;;;8257207;28;20222;-57
2024/01/03 05:05:25;;;;;;;7.47;1.90;;;;;;;;;;8257939;28;20021;-58
2024/01/03 05:09:26;;;;;;;10.15;2.00;;;;;;;;;;8258922;28;20283;-58
2024/01/03 05:13:29;;;;;;;9.88;2.00;;;;;;;;;;8256759;28;20029;-57
2024/01/03 05:17:29;;;;;;;10.43;1.60;;;;;;;;;;8258606;28;20041;-57
2024/01/03 05:21:29;;;;;;;11.60;2.33;;;;;;;;;;8258299;28;20025;-57
2024/01/03 05:25:29;;;;;;;5.17;1.80;;;;;;;;;;8255460;28;20025;-58
2024/01/03 05:29:29;;;;;;;7.65;1.80;;;;;;;;;;8255800;28;20271;-58
2024/01/03 05:33:30;;;;;;;5.07;1.30;;;;;;;;;;8253425;28;20038;-57
2024/01/03 05:37:30;;;;;;;8.23;1.63;;;;;;;;;;8255251;28;20025;-57
2024/01/03 05:41:30;;;;;;;7.38;1.48;;;;;;;;;;8254556;28;20287;-57
2024/01/03 05:45:30;;;;;;;12.75;1.90;;;;;;;;;;8257151;28;20033;-58
2024/01/03 05:49:31;;;;;;;11.68;2.35;;;;;;;;;;8255377;28;21045;-58
2024/01/03 05:53:31;;;;;;;11.90;2.17;;;;;;;;;;8257125;28;20021;-58
2024/01/03 05:57:32;;;;;;;7.85;1.63;;;;;;;;;;8256239;28;20069;-58
2024/01/03 06:01:32;;;;;;;5.80;1.67;;;;;;;;;;8255018;28;20612;-58
2024/01/03 06:05:33;;;;;;;11.77;1.90;;;;;;;;;;8255048;28;20026;-57
2024/01/03 06:09:33;;;;;;;10.00;1.73;;;;;;;;;;8255635;28;20087;-58
2024/01/03 06:13:33;;;;;;;7.93;1.80;;;;;;;;;;8263767;28;20037;-58
2024/01/03 06:17:33;;;;;;;11.68;2.47;;;;;;;;;;8267333;28;20288;-57
2024/01/03 06:21:33;;;;;;;12.32;2.30;;;;;;;;;;8266763;28;20074;-57
2024/01/03 06:25:34;;;;;;;11.73;2.28;;;;;;;;;;8271268;28;21182;-57
2024/01/03 06:29:34;;;;;;;7.57;1.50;;;;;;;;;;8271683;28;20029;-57
2024/01/03 06:33:34;;;;;;;12.05;1.73;;;;;;;;;;8269539;28;20056;-59
2024/01/03 06:37:34;;;;;;;15.25;2.67;;;;;;;;;;8272766;28;20021;-57
2024/01/03 06:41:34;;;;;;;9.35;2.20;;;;;;;;;;8269476;28;20037;-57
2024/01/03 06:45:35;;;;;;;7.45;1.50;;;;;;;;;;8260146;28;20045;-59
2024/01/03 06:49:35;;;;;;;7.43;1.40;;;;;;;;;;8258091;28;20018;-59
2024/01/03 06:53:35;;;;;;;6.70;1.45;;;;;;;;;;8263061;28;20052;-59
2024/01/03 06:57:35;;;;;;;9.17;1.67;;;;;;;;;;8262694;28;20017;-58
2024/01/03 07:01:37;;;;;;;11.80;1.90;;;;;;;;;;8255337;28;20042;-58
2024/01/03 07:05:37;;;;;;;7.03;1.60;;;;;;;;;;8260230;28;20029;-57
2024/01/03 07:09:38;;;;;;;4.05;1.38;;;;;;;;;;8261934;28;20029;-58
2024/01/03 07:13:38;;;;;;;7.70;1.42;;;;;;;;;;8262185;28;20039;-56
2024/01/03 07:17:38;;;;;;;6.30;1.63;;;;;;;;;;8261035;28;20045;-57
2024/01/03 07:21:39;;;;;;;5.17;1.30;;;;;;;;;;8259441;28;20131;-58
2024/01/03 07:25:39;;;;;;;4.68;1.27;;;;;;;;;;8268448;28;20299;-58
2024/01/03 07:29:41;;;;;;;5.15;1.40;;;;;;;;;;8267255;28;20045;-58
2024/01/03 07:33:41;;;;;;;5.95;1.10;;;;;;;;;;8266368;28;20033;-58
2024/01/03 07:37:41;;;;;;;4.00;1.17;;;;;;;;;;8268458;28;20025;-58
2024/01/03 07:41:41;;;;;;;4.60;1.00;;;;;;;;;;8265029;28;20386;-56
2024/01/03 07:45:41;;;;;;;5.07;1.20;;;;;;;;;;8264508;28;20822;-58
2024/01/03 07:49:44;;;;;;;6.50;1.25;;;;;;;;;;8264616;28;20030;-58
2024/01/03 07:53:44;;;;;;;6.90;1.40;;;;;;;;;;8264473;28;20024;-58
2024/01/03 07:57:44;;;;;;;3.85;1.05;;;;;;;;;;8266698;28;20267;-57
2024/01/03 08:01:44;;;;;;;5.43;1.27;;;;;;;;;;8268760;28;20050;-57
2024/01/03 08:05:45;;;;;;;3.65;0.90;;;;;;;;;;8267052;28;20033;-57
2024/01/03 08:09:45;;;;;;;4.13;1.17;;;;;;;;;;8266899;28;20041;-59
2024/01/03 08:13:45;;;;;;;3.33;1.08;;;;;;;;;;8265313;28;20033;-58
2024/01/03 08:17:45;;;;;;;6.13;1.38;;;;;;;;;;8267185;28;20042;-58
2024/01/03 08:21:46;;;;;;;3.45;1.00;;;;;;;;;;8268311;28;20029;-58
2024/01/03 08:25:46;;;;;;;2.95;0.98;;;;;;;;;;8270416;28;20033;-58
2024/01/03 08:29:47;;;;;;;6.03;1.48;;;;;;;;;;8266366;28;20082;-58
2024/01/03 08:33:48;;;;;;;3.92;0.82;;;;;;;;;;8257472;28;20044;-59
2024/01/03 08:37:48;;;;;;;2.55;0.90;;;;;;;;;;8257910;28;20025;-59
2024/01/03 08:41:48;;;;;;;3.58;1.00;;;;;;;;;;8256226;28;20026;-61
2024/01/03 08:45:49;;;;;;;1.93;0.90;;;;;;;;;;8257771;28;20038;-59
2024/01/03 08:49:49;;;;;;;3.80;0.90;;;;;;;;;;8257632;28;20111;-59
2024/01/03 08:53:49;;;;;;;2.55;0.90;;;;;;;;;;8258357;28;20279;-59
2024/01/03 08:57:50;;;;;;;2.10;0.88;;;;;;;;;;8256966;28;20025;-60
2024/01/03 09:01:56;;;;;;;1.53;0.73;;;;;;;;;;8254296;28;20045;-57
2024/01/03 09:05:56;;;;;;;2.45;1.10;;;;;;;;;;8254341;28;20983;-56
2024/01/03 09:09:56;;;;;;;4.45;1.00;;;;;;;;;;8255443;28;20022;-57
2024/01/03 09:13:57;;;;;;;2.80;0.90;;;;;;;;;;8256648;28;20029;-57
2024/01/03 09:17:57;;;;;;;2.58;0.70;;;;;;;;;;8254649;28;20047;-57
2024/01/03 09:21:59;;;;;;;3.92;1.05;;;;;;;;;;8252299;28;20686;-57
2024/01/03 09:26:02;;;;;;;3.90;0.95;;;;;;;;;;8254325;28;20083;-57
2024/01/03 09:30:03;;;;;;;2.17;1.07;;;;;;;;;;8253698;28;20025;-57
2024/01/03 09:34:04;;;;;;;3.97;1.30;;;;;;;;;;8217885;28;20053;-58
2024/01/03 09:38:05;;;;;;;7.40;1.40;;;;;;;;;;8222462;28;20360;-57
2024/01/03 09:42:06;;;;;;;4.53;1.30;;;;;;;;;;8224207;28;20022;-58
2024/01/03 09:46:06;;;;;;;2.72;1.10;;;;;;;;;;8218629;28;20049;-57
2024/01/03 09:50:07;;;;;;;7.07;1.70;;;;;;;;;;8221866;28;20026;-58
2024/01/03 09:54:08;;;;;;;4.90;1.30;;;;;;;;;;8222610;28;20143;-57
2024/01/03 09:58:08;;;;;;;5.88;1.40;;;;;;;;;;8224492;28;20141;-56
2024/01/03 10:02:10;;;;;;;4.70;1.33;;;;;;;;;;8227995;28;20042;-57
2024/01/03 10:06:13;;;;;;;5.22;1.33;;;;;;;;;;8227740;28;20402;-56
2024/01/03 10:10:27;;;;;;;7.03;1.60;;;;;;;;;;8226633;28;20029;-56
2024/01/03 10:14:27;;;;;;;6.15;1.50;;;;;;;;;;8227085;28;20022;-56
2024/01/03 10:18:28;;;;;;;4.35;1.40;;;;;;;;;;8229282;28;20136;-57
2024/01/03 10:22:28;;;;;;;5.65;1.30;;;;;;;;;;8230724;28;20029;-57
2024/01/03 10:26:29;;;;;;;4.03;1.10;;;;;;;;;;8230963;28;20025;-57
2024/01/03 10:30:30;;;;;;;7.40;1.63;;;;;;;;;;8226823;28;20034;-57
2024/01/03 10:34:30;;;;;;;6.05;1.52;;;;;;;;;;8224946;28;20044;-58
2024/01/03 10:38:31;;;;;;;5.18;1.20;;;;;;;;;;8227478;28;20041;-57
2024/01/03 10:42:31;;;;;;;7.50;1.45;;;;;;;;;;8231261;28;20779;-59
2024/01/03 10:46:32;;;;;;;8.65;1.63;;;;;;;;;;8231042;28;20033;-58
2024/01/03 10:50:34;;;;;;;7.03;1.40;;;;;;;;;;8225996;28;20030;-59
2024/01/03 10:54:40;;;;;;;9.13;1.83;;;;;;;;;;8226281;28;20028;-58
2024/01/03 10:58:40;;;;;;;5.13;1.40;;;;;;;;;;8230939;28;20508;-59
2024/01/03 11:03:07;;;;;;;5.03;1.55;;;;;;;;;;8227276;28;20037;-59
2024/01/03 11:07:13;;;;;;;7.70;1.42;;;;;;;;;;8210828;28;20048;-59
2024/01/03 11:11:27;;;;;;;7.65;2.47;;;;;;;;;;8226820;28;20026;-59
2024/01/03 11:15:27;;;;;;;7.90;1.57;;;;;;;;;;8224854;28;20033;-59
2024/01/03 11:19:31;;;;;;;8.68;1.92;;;;;;;;;;8226947;28;20116;-59
2024/01/03 11:23:31;;;;;;;9.52;2.17;;;;;;;;;;8225957;28;20037;-57
2024/01/03 11:27:31;;;;;;;14.25;2.53;;;;;;;;;;8227388;28;20822;-57
2024/01/03 11:31:50;;;;;;;8.80;2.00;;;;;;;;;;8226149;28;20040;-57
2024/01/03 11:35:51;;;;;;;7.75;1.48;;;;;;;;;;8225447;28;21019;-57
2024/01/03 11:39:52;;;;;;;7.00;1.67;;;;;;;;;;8212673;28;20696;-58
2024/01/03 11:43:52;;;;;;;8.98;2.08;;;;;;;;;;8227284;28;20277;-58
2024/01/03 11:47:53;;;;;;;7.25;1.75;;;;;;;;;;8225959;28;20042;-58
2024/01/03 11:51:55;;;;;;;8.95;1.52;;;;;;;;;;8222142;28;20252;-57
2024/01/03 11:55:55;;;;;;;5.80;1.35;;;;;;;;;;8225993;28;20048;-58
2024/01/03 12:00:02;;;;;;;5.17;1.60;;;;;;;;;;8224654;28;20040;-57
2024/01/03 12:04:11;;;;;;;8.75;1.73;;;;;;;;;;8226558;28;20273;-58
2024/01/03 12:08:12;;;;;;;8.02;1.85;;;;;;;;;;8227680;28;20847;-59
2024/01/03 12:12:13;;;;;;;11.48;2.38;;;;;;;;;;8228333;28;20026;-58
2024/01/03 12:16:13;;;;;;;8.23;1.83;;;;;;;;;;8227230;28;20054;-59
2024/01/03 12:20:14;;;;;;;11.15;2.33;;;;;;;;;;8224411;28;20124;-59
2024/01/03 12:24:14;;;;;;;7.68;1.90;;;;;;;;;;8227933;28;20026;-59
2024/01/03 12:28:18;;;;;;;7.35;2.40;;;;;;;;;;8223180;28;20144;-58
2024/01/03 12:32:19;;;;;;;11.63;2.17;;;;;;;;;;8230053;28;20073;-57
2024/01/03 12:36:19;;;;;;;9.15;1.70;;;;;;;;;;8217666;28;20097;-57
2024/01/03 12:40:20;;;;;;;9.93;1.70;;;;;;;;;;8222604;28;20029;-58
2024/01/03 12:44:21;;;;;;;12.02;1.88;;;;;;;;;;8226481;28;20072;-57
2024/01/03 12:48:21;;;;;;;6.78;1.33;;;;;;;;;;8226514;28;20030;-58
2024/01/03 12:52:29;;;;;;;5.60;1.50;;;;;;;;;;8222001;28;20025;-58
2024/01/03 12:56:29;;;;;;;5.32;1.23;;;;;;;;;;8223835;28;20064;-57
2024/01/03 13:00:29;;;;;;;2.67;1.17;;;;;;;;;;8225057;28;20045;-57
2024/01/03 13:04:29;;;;;;;4.75;1.40;;;;;;;;;;8219189;28;20056;-58
2024/01/03 13:08:30;;;;;;;2.38;1.13;;;;;;;;;;8222516;28;20021;-58
2024/01/03 13:12:30;;;;;;;5.65;1.15;;;;;;;;;;8229256;28;20030;-57
2024/01/03 13:16:31;;;;;;;4.20;1.00;;;;;;;;;;8231307;28;20038;-58
2024/01/03 13:20:33;;;;;;;6.72;1.25;;;;;;;;;;8235414;28;20030;-58
2024/01/03 13:24:34;;;;;;;3.00;1.35;;;;;;;;;;8232541;28;20018;-58
2024/01/03 13:28:34;;;;;;;5.18;1.20;;;;;;;;;;8233371;28;20145;-58
2024/01/03 13:32:37;;;;;;;4.38;1.00;;;;;;;;;;8252599;28;20057;-57
2024/01/03 13:36:37;;;;;;;2.45;0.90;;;;;;;;;;8263624;28;20025;-58
2024/01/03 13:40:39;;;;;;;2.07;0.80;;;;;;;;;;8268090;28;20709;-59
2024/01/03 13:44:40;;;;;;;2.25;0.77;;;;;;;;;;8264708;28;20645;-56
2024/01/03 13:48:40;;;;;;;3.20;1.00;;;;;;;;;;8268307;28;20034;-57
2024/01/03 13:52:41;;;;;;;2.38;0.80;;;;;;;;;;8266170;28;20028;-58
2024/01/03 13:56:41;;;;;;;2.92;0.77;;;;;;;;;;8268374;28;20036;-57
2024/01/03 14:00:42;;;;;;;2.58;0.82;;;;;;;;;;8271053;28;20041;-57
2024/01/03 14:04:42;;;;;;;5.23;1.23;;;;;;;;;;8274637;28;20025;-58
2024/01/03 14:08:42;;;;;;;4.30;1.20;;;;;;;;;;8272028;28;20447;-58
2024/01/03 14:12:43;;;;;;;3.35;1.00;;;;;;;;;;8272314;28;20028;-58
2024/01/03 14:16:46;;;;;;;7.35;1.50;;;;;;;;;;8271347;28;20038;-58
2024/01/03 14:20:47;;;;;;;7.10;1.50;;;;;;;;;;8271899;28;20036;-58
2024/01/03 14:24:49;;;;;;;8.50;1.85;;;;;;;;;;8268082;28;20033;-58
2024/01/03 14:28:50;;;;;;;7.78;1.60;;;;;;;;;;8256714;28;20140;-59
2024/01/03 14:32:52;;;;;;;5.17;1.40;;;;;;;;;;8258290;28;20152;-59
2024/01/03 14:37:07;;;;;;;9.82;1.70;;;;;;;;;;8257728;28;20276;-58
2024/01/03 14:41:13;;;;;;;5.53;1.30;;;;;;;;;;8258553;28;20033;-58
2024/01/03 14:45:16;;;;;;;7.88;1.55;;;;;;;;;;8257625;28;20348;-58
2024/01/03 14:49:16;;;;;;;7.70;1.80;;;;;;;;;;8265671;28;20027;-58
2024/01/03 14:53:16;;;;;;;8.18;1.85;;;;;;;;;;8264067;28;20030;-58
2024/01/03 14:57:16;;;;;;;7.22;1.77;;;;;;;;;;8259553;28;20018;-58
2024/01/03 15:01:17;;;;;;;11.40;2.03;;;;;;;;;;8261614;28;20041;-58
2024/01/03 15:05:17;;;;;;;8.88;1.75;;;;;;;;;;8262067;28;20786;-61
2024/01/03 15:09:17;;;;;;;5.65;1.45;;;;;;;;;;8261571;28;20052;-58
2024/01/03 15:13:17;;;;;;;5.07;1.65;;;;;;;;;;8261409;28;20022;-59
2024/01/03 15:17:18;;;;;;;7.40;1.38;;;;;;;;;;8255095;28;20041;-57
2024/01/03 15:21:18;;;;;;;6.47;1.43;;;;;;;;;;8255576;28;20017;-58
2024/01/03 15:25:19;;;;;;;6.50;1.55;;;;;;;;;;8260821;28;20117;-58
2024/01/03 15:29:19;;;;;;;7.07;1.65;;;;;;;;;;8260273;28;20025;-58
2024/01/03 15:33:21;;;;;;;5.13;1.47;;;;;;;;;;8260788;28;20123;-57
2024/01/03 15:37:22;;;;;;;10.25;1.55;;;;;;;;;;8256605;28;20021;-58
2024/01/03 15:41:22;;;;;;;9.00;1.60;;;;;;;;;;8258898;28;20550;-59
2024/01/03 15:45:22;;;;;;;3.55;0.90;;;;;;;;;;8261233;28;20032;-58
2024/01/03 15:49:24;;;;;;;4.85;1.20;;;;;;;;;;8259765;28;20026;-58
2024/01/03 15:53:24;;;;;;;3.50;0.90;;;;;;;;;;8263216;28;20907;-58
2024/01/03 15:57:26;;;;;;;2.97;1.23;;;;;;;;;;8260439;28;20039;-58
2024/01/03 16:01:26;;;;;;;2.05;0.80;;;;;;;;;;8258733;28;20053;-58
2024/01/03 16:05:26;;;;;;;1.35;1.10;;;;;;;;;;8268977;28;20835;-63
2024/01/03 16:09:27;;;;;;;1.27;0.70;;;;;;;;;;8271784;28;20022;-59
2024/01/03 16:13:27;;;;;;;1.25;0.70;;;;;;;;;;8273643;28;20750;-59
2024/01/03 16:17:28;;;;;;;2.40;0.85;;;;;;;;;;8270560;28;20479;-57
2024/01/03 16:21:28;;;;;;;3.53;0.80;;;;;;;;;;8269170;28;20048;-58
2024/01/03 16:25:29;;;;;;;3.30;0.77;;;;;;;;;;8271665;28;20759;-57
2024/01/03 16:29:30;;;;;;;1.77;0.80;;;;;;;;;;8273284;28;20465;-58
2024/01/03 16:33:30;;;;;;;2.28;1.00;;;;;;;;;;8267979;28;20083;-58
2024/01/03 16:37:33;;;;;;;5.38;1.20;;;;;;;;;;8257105;28;20418;-58
2024/01/03 16:41:33;;;;;;;3.38;1.55;;;;;;;;;;8255817;28;20032;-59
2024/01/03 16:45:34;;;;;;;4.95;1.33;;;;;;;;;;8254964;28;20878;-59
2024/01/03 16:49:34;;;;;;;9.55;1.48;;;;;;;;;;8244166;28;20148;-57
2024/01/03 16:53:34;;;;;;;7.10;1.55;;;;;;;;;;8247117;28;21006;-59
2024/01/03 16:57:34;;;;;;;6.05;1.23;;;;;;;;;;8251400;28;20032;-57
2024/01/03 17:01:35;;;;;;;4.90;1.20;;;;;;;;;;8250064;28;20045;-58
2024/01/03 17:05:35;;;;;;;6.38;1.65;;;;;;;;;;8251281;28;20029;-57
2024/01/03 17:09:35;;;;;;;6.90;1.50;;;;;;;;;;8249323;28;20021;-58
2024/01/03 17:13:36;;;;;;;8.45;1.95;;;;;;;;;;8249493;28;20032;-59
2024/01/03 17:17:37;;;;;;;4.45;1.58;;;;;;;;;;8247681;28;20224;-58
2024/01/03 17:21:37;;;;;;;6.47;1.65;;;;;;;;;;8247410;28;20033;-58
2024/01/03 17:25:38;;;;;;;1.77;1.00;;;;;;;;;;8251512;28;20122;-58
2024/01/03 17:29:38;;;;;;;5.88;1.42;;;;;;;;;;8248107;28;20283;-58
2024/01/03 17:33:39;;;;;;;4.13;1.50;;;;;;;;;;8248723;28;20029;-58
2024/01/03 17:37:39;;;;;;;7.10;1.48;;;;;;;;;;8246660;28;20391;-57
2024/01/03 17:41:43;;;;;;;7.33;1.70;;;;;;;;;;8246522;28;20110;-58
2024/01/03 17:45:43;;;;;;;3.88;1.13;;;;;;;;;;8250260;28;20338;-59
2024/01/03 17:49:44;;;;;;;2.00;0.80;;;;;;;;;;8250479;28;20018;-58
2024/01/03 17:53:44;;;;;;;3.60;1.25;;;;;;;;;;8248296;28;20048;-58
2024/01/03 17:57:44;;;;;;;2.83;1.00;;;;;;;;;;8249361;28;20034;-59
2024/01/03 18:01:45;;;;;;;2.50;0.90;;;;;;;;;;8249618;28;20045;-58
2024/01/03 18:05:45;;;;;;;5.57;0.90;;;;;;;;;;8246370;28;20771;-58
2024/01/03 18:09:45;;;;;;;3.67;1.00;;;;;;;;;;8248581;28;20033;-59
2024/01/03 18:13:46;;;;;;;3.78;0.90;;;;;;;;;;8244461;28;20028;-57
2024/01/03 18:17:46;;;;;;;2.88;0.75;;;;;;;;;;8248188;28;20044;-57
2024/01/03 18:21:46;;;;;;;1.50;0.80;;;;;;;;;;8246696;28;20044;-58
2024/01/03 18:25:48;;;;;;;1.67;1.15;;;;;;;;;;8254753;28;20416;-56
2024/01/03 18:29:48;;;;;;;2.28;0.90;;;;;;;;;;8255226;28;20032;-58
2024/01/03 18:33:48;;;;;;;1.52;0.80;;;;;;;;;;8255496;28;20136;-58
2024/01/03 18:37:49;;;;;;;2.37;1.13;;;;;;;;;;8253772;28;20143;-59
2024/01/03 18:41:51;;;;;;;3.58;0.88;;;;;;;;;;8251344;28;20288;-58
2024/01/03 18:45:52;;;;;;;0.95;0.70;;;;;;;;;;8253209;28;20041;-58
2024/01/03 18:49:53;;;;;;;1.17;0.70;;;;;;;;;;8251075;28;20378;-57
2024/01/03 18:53:53;;;;;;;1.70;0.65;;;;;;;;;;8252759;28;20264;-58
2024/01/03 18:57:53;;;;;;;2.78;0.82;;;;;;;;;;8273968;28;20148;-58
2024/01/03 19:01:53;;;;;;;3.10;1.00;;;;;;;;;;8266569;28;20160;-58
2024/01/03 19:05:54;;;;;;;3.17;0.90;;;;;;;;;;8257258;28;20131;-57
2024/01/03 19:09:55;;;;;;;3.17;0.83;;;;;;;;;;8251148;28;20276;-58
2024/01/03 19:13:55;;;;;;;2.38;0.90;;;;;;;;;;8255412;28;21245;-59
2024/01/03 19:17:55;;;;;;;3.15;0.80;;;;;;;;;;8251104;28;20128;-58
2024/01/03 19:21:56;;;;;;;2.35;0.85;;;;;;;;;;8248696;28;20061;-56
2024/01/03 19:25:56;;;;;;;1.90;0.60;;;;;;;;;;8252087;28;20100;-58
2024/01/03 19:29:59;;;;;;;2.78;0.98;;;;;;;;;;8250107;28;20116;-58
2024/01/03 19:33:59;;;;;;;2.58;0.70;;;;;;;;;;8251940;28;20033;-56
2024/01/03 19:38:01;;;;;;;1.37;0.80;;;;;;;;;;8265061;28;20759;-58
2024/01/03 19:42:01;;;;;;;1.95;0.82;;;;;;;;;;8262469;28;20346;-57
2024/01/03 19:46:01;;;;;;;1.70;0.80;;;;;;;;;;8267915;28;20037;-56
2024/01/03 19:50:01;;;;;;;1.93;0.70;;;;;;;;;;8262566;28;20029;-56
2024/01/03 19:54:02;;;;;;;1.45;0.80;;;;;;;;;;8266882;28;20291;-58
2024/01/03 19:58:02;;;;;;;2.20;0.70;;;;;;;;;;8261060;28;20449;-57
2024/01/03 20:02:04;;;;;;;1.65;0.90;;;;;;;;;;8267586;28;20946;-58
2024/01/03 20:06:04;;;;;;;2.15;0.90;;;;;;;;;;8260618;28;20029;-58
2024/01/03 20:10:05;;;;;;;5.88;1.20;;;;;;;;;;8257975;28;20033;-58
2024/01/03 20:14:06;;;;;;;3.33;0.95;;;;;;;;;;8254749;28;20040;-58
2024/01/03 20:18:06;;;;;;;3.67;0.90;;;;;;;;;;8259233;28;20042;-59
2024/01/03 20:22:06;;;;;;;1.88;0.90;;;;;;;;;;8251479;28;20041;-58
2024/01/03 20:26:13;;;;;;;1.08;0.80;;;;;;;;;;8257209;28;20018;-58
2024/01/03 20:30:13;;;;;;;1.48;0.98;;;;;;;;;;8255887;28;20036;-57
2024/01/03 20:34:13;;;;;;;2.13;0.77;;;;;;;;;;8253558;28;20025;-58
2024/01/03 20:38:13;;;;;;;2.33;1.23;;;;;;;;;;8255706;28;20036;-59
2024/01/03 20:42:13;;;;;;;4.47;1.02;;;;;;;;;;8255991;28;20760;-58
2024/01/03 20:46:14;;;;;;;1.70;1.15;;;;;;;;;;8251374;28;20095;-57
2024/01/03 20:50:14;;;;;;;2.92;0.95;;;;;;;;;;8249768;28;20025;-57
2024/01/03 20:54:14;;;;;;;5.35;1.27;;;;;;;;;;8251280;28;20030;-57
2024/01/03 20:58:14;;;;;;;5.07;1.13;;;;;;;;;;8250047;28;20021;-57
2024/01/03 21:02:15;;;;;;;4.20;1.08;;;;;;;;;;8250082;28;20063;-57
2024/01/03 21:06:16;;;;;;;1.58;0.80;;;;;;;;;;8247591;28;20060;-57
2024/01/03 21:10:16;;;;;;;3.63;1.30;;;;;;;;;;8243836;28;20013;-57
2024/01/03 21:14:16;;;;;;;3.33;0.90;;;;;;;;;;8256376;28;20013;-57
2024/01/03 21:18:16;;;;;;;2.13;0.90;;;;;;;;;;8262814;28;20038;-56
2024/01/03 21:22:18;;;;;;;1.02;0.82;;;;;;;;;;8269095;28;20308;-57
2024/01/03 21:26:19;;;;;;;3.75;0.98;;;;;;;;;;8256021;28;20490;-58
2024/01/03 21:30:19;;;;;;;2.85;0.90;;;;;;;;;;8247599;28;20029;-57
2024/01/03 21:34:20;;;;;;;4.20;0.88;;;;;;;;;;8258446;28;20024;-58
2024/01/03 21:38:20;;;;;;;1.93;0.90;;;;;;;;;;8248621;28;20597;-58
2024/01/03 21:42:20;;;;;;;4.55;1.02;;;;;;;;;;8256337;28;20306;-58
2024/01/03 21:46:20;;;;;;;2.53;0.93;;;;;;;;;;8257845;28;20076;-58
2024/01/03 21:50:21;;;;;;;3.05;1.00;;;;;;;;;;8255096;28;20260;-59
2024/01/03 21:54:21;;;;;;;2.80;0.95;;;;;;;;;;8257041;28;20033;-58
2024/01/03 21:58:21;;;;;;;1.15;0.80;;;;;;;;;;8255126;28;20021;-58
2024/01/03 22:02:21;;;;;;;2.17;0.93;;;;;;;;;;8255095;28;20502;-57
2024/01/03 22:06:21;;;;;;;1.65;0.98;;;;;;;;;;8257010;28;20848;-58
2024/01/03 22:10:22;;;;;;;2.83;0.80;;;;;;;;;;8256797;28;20029;-58
2024/01/03 22:14:24;;;;;;;1.65;0.95;;;;;;;;;;8253669;28;20354;-58
2024/01/03 22:18:24;;;;;;;3.00;1.10;;;;;;;;;;8250657;28;20465;-58
2024/01/03 22:22:24;;;;;;;1.88;0.80;;;;;;;;;;8250093;28;20025;-58
2024/01/03 22:26:24;;;;;;;3.88;0.90;;;;;;;;;;8253213;28;20883;-57
2024/01/03 22:30:24;;;;;;;1.37;0.77;;;;;;;;;;8252394;28;20095;-59
2024/01/03 22:34:25;;;;;;;1.65;0.88;;;;;;;;;;8260263;28;20769;-58
2024/01/03 22:38:26;;;;;;;2.72;0.80;;;;;;;;;;8266228;28;20090;-59
2024/01/03 22:42:27;;;;;;;2.65;0.93;;;;;;;;;;8262638;28;20025;-57
2024/01/03 22:46:29;;;;;;;1.52;0.80;;;;;;;;;;8261770;28;20030;-57
2024/01/03 22:50:29;;;;;;;2.95;0.80;;;;;;;;;;8263183;28;21031;-58
2024/01/03 22:54:29;;;;;;;1.63;0.80;;;;;;;;;;8266485;28;20021;-58
2024/01/03 22:58:30;;;;;;;1.45;0.80;;;;;;;;;;8258889;28;20033;-58
2024/01/03 23:02:30;;;;;;;1.30;0.73;;;;;;;;;;8261717;28;20120;-58
2024/01/03 23:06:32;;;;;;;2.77;0.73;;;;;;;;;;8256732;28;20098;-59
2024/01/03 23:10:33;;;;;;;0.65;0.50;;;;;;;;;;8261509;28;20025;-59
2024/01/03 23:14:33;;;;;;;2.10;0.82;;;;;;;;;;8263068;28;20021;-59
2024/01/03 23:18:33;;;;;;;0.65;0.60;;;;;;;;;;8261949;28;20026;-59
2024/01/03 23:22:34;;;;;;;0.50;0.50;;;;;;;;;;8260240;28;20029;-57
2024/01/03 23:26:34;;;;;;;2.92;0.77;;;;;;;;;;8264970;28;20025;-60
2024/01/03 23:30:34;;;;;;;1.75;0.60;;;;;;;;;;8258982;28;20030;-59
2024/01/03 23:34:34;;;;;;;1.38;0.60;;;;;;;;;;8260913;28;20032;-59
2024/01/03 23:38:35;;;;;;;1.45;0.60;;;;;;;;;;8259410;28;20892;-59
2024/01/03 23:42:36;;;;;;;0.70;0.40;;;;;;;;;;8260438;28;20021;-59
2024/01/03 23:46:42;;;;;;;1.85;0.90;;;;;;;;;;8279300;28;20041;-56
2024/01/03 23:50:43;;;;;;;0.82;0.73;;;;;;;;;;8276005;28;20509;-56
2024/01/03 23:54:44;;;;;;;1.33;0.68;;;;;;;;;;8273118;28;20033;-57
2024/01/03 23:58:45;;;;;;;2.93;0.97;;;;;;;;;;8277149;28;20021;-56
